sensor_id;sensor_type;location;lat;lon;timestamp;P1;durP1;ratioP1;P2;durP2;ratioP2
16735;SDS011;17990;49.548;9.730;2023-06-22T00:01:12;13.73;;;7.40;;
16735;SDS011;17990;49.548;9.730;2023-06-22T00:03:39;12.03;;;7.23;;
16735;SDS011;17990;49.548;9.730;2023-06-22T00:06:06;13.27;;;6.93;;
16735;SDS011;17990;49.548;9.730;2023-06-22T00:08:33;10.33;;;6.77;;
16735;SDS011;17990;49.548;9.730;2023-06-22T00:11:01;11.87;;;7.73;;
16735;SDS011;17990;49.548;9.730;2023-06-22T00:13:28;7.87;;;6.97;;
16735;SDS011;17990;49.548;9.730;2023-06-22T00:15:54;9.77;;;6.77;;
16735;SDS011;17990;49.548;9.730;2023-06-22T00:18:21;11.50;;;7.03;;
16735;SDS011;17990;49.548;9.730;2023-06-22T00:20:52;9.03;;;7.10;;
16735;SDS011;17990;49.548;9.730;2023-06-22T00:23:23;12.80;;;8.13;;
16735;SDS011;17990;49.548;9.730;2023-06-22T00:25:50;11.60;;;7.97;;
16735;SDS011;17990;49.548;9.730;2023-06-22T00:28:18;12.17;;;8.40;;
16735;SDS011;17990;49.548;9.730;2023-06-22T00:30:46;16.17;;;8.90;;
16735;SDS011;17990;49.548;9.730;2023-06-22T00:33:13;12.30;;;8.77;;
16735;SDS011;17990;49.548;9.730;2023-06-22T00:35:41;14.93;;;8.07;;
16735;SDS011;17990;49.548;9.730;2023-06-22T00:38:07;10.47;;;9.10;;
16735;SDS011;17990;49.548;9.730;2023-06-22T00:40:34;15.27;;;8.73;;
16735;SDS011;17990;49.548;9.730;2023-06-22T00:43:01;13.43;;;8.33;;
16735;SDS011;17990;49.548;9.730;2023-06-22T00:45:30;12.33;;;8.23;;
16735;SDS011;17990;49.548;9.730;2023-06-22T00:47:57;14.43;;;8.90;;
16735;SDS011;17990;49.548;9.730;2023-06-22T00:50:26;11.10;;;8.50;;
16735;SDS011;17990;49.548;9.730;2023-06-22T00:52:59;13.40;;;9.50;;
16735;SDS011;17990;49.548;9.730;2023-06-22T00:55:29;9.97;;;8.97;;
16735;SDS011;17990;49.548;9.730;2023-06-22T00:57:56;15.03;;;8.87;;
16735;SDS011;17990;49.548;9.730;2023-06-22T01:00:23;14.97;;;9.27;;
16735;SDS011;17990;49.548;9.730;2023-06-22T01:02:52;13.07;;;9.17;;
16735;SDS011;17990;49.548;9.730;2023-06-22T01:05:19;12.83;;;8.70;;
16735;SDS011;17990;49.548;9.730;2023-06-22T01:07:55;13.40;;;8.73;;
16735;SDS011;17990;49.548;9.730;2023-06-22T01:10:36;17.30;;;8.43;;
16735;SDS011;17990;49.548;9.730;2023-06-22T01:13:14;10.40;;;8.87;;
16735;SDS011;17990;49.548;9.730;2023-06-22T01:15:50;11.63;;;8.10;;
16735;SDS011;17990;49.548;9.730;2023-06-22T01:18:23;14.50;;;8.43;;
16735;SDS011;17990;49.548;9.730;2023-06-22T01:20:52;12.87;;;9.13;;
16735;SDS011;17990;49.548;9.730;2023-06-22T01:23:26;10.07;;;8.57;;
16735;SDS011;17990;49.548;9.730;2023-06-22T01:26:02;13.30;;;8.77;;
16735;SDS011;17990;49.548;9.730;2023-06-22T01:28:46;11.90;;;8.23;;
16735;SDS011;17990;49.548;9.730;2023-06-22T01:31:16;15.57;;;7.90;;
16735;SDS011;17990;49.548;9.730;2023-06-22T01:33:46;9.93;;;7.70;;
16735;SDS011;17990;49.548;9.730;2023-06-22T01:36:17;13.33;;;8.00;;
16735;SDS011;17990;49.548;9.730;2023-06-22T01:38:45;12.30;;;7.47;;
16735;SDS011;17990;49.548;9.730;2023-06-22T01:41:14;17.67;;;8.40;;
16735;SDS011;17990;49.548;9.730;2023-06-22T01:43:42;10.07;;;6.70;;
16735;SDS011;17990;49.548;9.730;2023-06-22T01:46:11;11.50;;;7.43;;
16735;SDS011;17990;49.548;9.730;2023-06-22T01:48:38;12.90;;;8.97;;
16735;SDS011;17990;49.548;9.730;2023-06-22T01:51:06;12.10;;;8.40;;
16735;SDS011;17990;49.548;9.730;2023-06-22T01:53:33;13.00;;;8.30;;
16735;SDS011;17990;49.548;9.730;2023-06-22T01:56:00;18.63;;;9.23;;
16735;SDS011;17990;49.548;9.730;2023-06-22T01:58:27;26.27;;;10.43;;
16735;SDS011;17990;49.548;9.730;2023-06-22T02:00:57;20.77;;;11.87;;
16735;SDS011;17990;49.548;9.730;2023-06-22T02:03:31;19.33;;;13.40;;
16735;SDS011;17990;49.548;9.730;2023-06-22T02:06:04;19.70;;;14.30;;
16735;SDS011;17990;49.548;9.730;2023-06-22T02:11:20;19.17;;;15.33;;
16735;SDS011;17990;49.548;9.730;2023-06-22T02:13:49;18.57;;;15.20;;
16735;SDS011;17990;49.548;9.730;2023-06-22T02:16:16;19.43;;;15.27;;
16735;SDS011;17990;49.548;9.730;2023-06-22T02:18:47;16.43;;;13.80;;
16735;SDS011;17990;49.548;9.730;2023-06-22T02:21:15;17.57;;;14.47;;
16735;SDS011;17990;49.548;9.730;2023-06-22T02:23:42;20.83;;;14.50;;
16735;SDS011;17990;49.548;9.730;2023-06-22T02:26:09;15.60;;;13.97;;
16735;SDS011;17990;49.548;9.730;2023-06-22T02:28:36;16.80;;;14.60;;
16735;SDS011;17990;49.548;9.730;2023-06-22T02:31:03;17.27;;;13.97;;
16735;SDS011;17990;49.548;9.730;2023-06-22T02:33:30;16.33;;;13.93;;
16735;SDS011;17990;49.548;9.730;2023-06-22T02:35:58;14.43;;;12.63;;
16735;SDS011;17990;49.548;9.730;2023-06-22T02:38:25;14.90;;;12.23;;
16735;SDS011;17990;49.548;9.730;2023-06-22T02:40:52;12.53;;;11.07;;
16735;SDS011;17990;49.548;9.730;2023-06-22T02:43:19;13.43;;;10.97;;
16735;SDS011;17990;49.548;9.730;2023-06-22T02:45:46;13.97;;;10.20;;
16735;SDS011;17990;49.548;9.730;2023-06-22T02:48:12;11.50;;;10.27;;
16735;SDS011;17990;49.548;9.730;2023-06-22T02:50:39;12.27;;;9.60;;
16735;SDS011;17990;49.548;9.730;2023-06-22T02:53:07;12.67;;;10.40;;
16735;SDS011;17990;49.548;9.730;2023-06-22T02:55:34;11.07;;;9.60;;
16735;SDS011;17990;49.548;9.730;2023-06-22T02:58:01;12.53;;;9.10;;
16735;SDS011;17990;49.548;9.730;2023-06-22T03:00:30;12.00;;;9.87;;
16735;SDS011;17990;49.548;9.730;2023-06-22T03:02:57;14.33;;;11.30;;
16735;SDS011;17990;49.548;9.730;2023-06-22T03:05:24;13.97;;;12.47;;
16735;SDS011;17990;49.548;9.730;2023-06-22T03:07:51;14.60;;;12.37;;
16735;SDS011;17990;49.548;9.730;2023-06-22T03:10:19;17.37;;;13.07;;
16735;SDS011;17990;49.548;9.730;2023-06-22T03:12:46;15.80;;;12.37;;
16735;SDS011;17990;49.548;9.730;2023-06-22T03:15:13;15.93;;;12.67;;
16735;SDS011;17990;49.548;9.730;2023-06-22T03:17:42;15.57;;;13.50;;
16735;SDS011;17990;49.548;9.730;2023-06-22T03:20:09;16.53;;;12.63;;
16735;SDS011;17990;49.548;9.730;2023-06-22T03:22:37;18.23;;;13.77;;
16735;SDS011;17990;49.548;9.730;2023-06-22T03:25:05;18.53;;;13.17;;
16735;SDS011;17990;49.548;9.730;2023-06-22T03:27:39;14.83;;;13.27;;
16735;SDS011;17990;49.548;9.730;2023-06-22T03:30:07;18.77;;;14.30;;
16735;SDS011;17990;49.548;9.730;2023-06-22T03:32:36;17.03;;;13.57;;
16735;SDS011;17990;49.548;9.730;2023-06-22T03:35:03;19.83;;;14.63;;
16735;SDS011;17990;49.548;9.730;2023-06-22T03:37:32;19.17;;;15.00;;
16735;SDS011;17990;49.548;9.730;2023-06-22T03:39:59;16.80;;;13.63;;
16735;SDS011;17990;49.548;9.730;2023-06-22T03:42:25;23.30;;;14.17;;
16735;SDS011;17990;49.548;9.730;2023-06-22T03:44:54;15.20;;;13.63;;
16735;SDS011;17990;49.548;9.730;2023-06-22T03:47:21;14.03;;;12.50;;
16735;SDS011;17990;49.548;9.730;2023-06-22T03:49:48;17.33;;;13.00;;
16735;SDS011;17990;49.548;9.730;2023-06-22T03:52:15;18.17;;;13.23;;
16735;SDS011;17990;49.548;9.730;2023-06-22T03:54:41;15.83;;;12.97;;
16735;SDS011;17990;49.548;9.730;2023-06-22T03:57:08;16.20;;;12.40;;
16735;SDS011;17990;49.548;9.730;2023-06-22T03:59:36;14.80;;;12.07;;
16735;SDS011;17990;49.548;9.730;2023-06-22T04:02:04;13.87;;;11.87;;
16735;SDS011;17990;49.548;9.730;2023-06-22T04:04:31;14.73;;;11.43;;
16735;SDS011;17990;49.548;9.730;2023-06-22T04:06:58;16.90;;;11.43;;
16735;SDS011;17990;49.548;9.730;2023-06-22T04:09:25;15.23;;;11.60;;
16735;SDS011;17990;49.548;9.730;2023-06-22T04:11:52;17.20;;;12.00;;
16735;SDS011;17990;49.548;9.730;2023-06-22T04:14:19;13.00;;;11.57;;
16735;SDS011;17990;49.548;9.730;2023-06-22T04:16:46;14.20;;;11.43;;
16735;SDS011;17990;49.548;9.730;2023-06-22T04:19:14;14.37;;;11.77;;
16735;SDS011;17990;49.548;9.730;2023-06-22T04:21:42;15.60;;;11.83;;
16735;SDS011;17990;49.548;9.730;2023-06-22T04:24:10;16.70;;;11.27;;
16735;SDS011;17990;49.548;9.730;2023-06-22T04:26:37;16.63;;;11.10;;
16735;SDS011;17990;49.548;9.730;2023-06-22T04:29:06;15.63;;;10.43;;
16735;SDS011;17990;49.548;9.730;2023-06-22T04:31:34;14.57;;;11.03;;
16735;SDS011;17990;49.548;9.730;2023-06-22T04:34:02;18.53;;;11.60;;
16735;SDS011;17990;49.548;9.730;2023-06-22T04:36:35;15.10;;;11.67;;
16735;SDS011;17990;49.548;9.730;2023-06-22T04:39:04;14.13;;;11.37;;
16735;SDS011;17990;49.548;9.730;2023-06-22T04:41:34;17.63;;;11.27;;
16735;SDS011;17990;49.548;9.730;2023-06-22T04:44:07;16.50;;;11.03;;
16735;SDS011;17990;49.548;9.730;2023-06-22T04:46:35;17.90;;;11.63;;
16735;SDS011;17990;49.548;9.730;2023-06-22T04:49:04;21.43;;;12.33;;
16735;SDS011;17990;49.548;9.730;2023-06-22T04:51:35;20.10;;;11.33;;
16735;SDS011;17990;49.548;9.730;2023-06-22T04:54:05;18.47;;;12.23;;
16735;SDS011;17990;49.548;9.730;2023-06-22T04:56:32;13.57;;;11.53;;
16735;SDS011;17990;49.548;9.730;2023-06-22T04:58:59;16.50;;;11.03;;
16735;SDS011;17990;49.548;9.730;2023-06-22T05:01:28;16.80;;;11.07;;
16735;SDS011;17990;49.548;9.730;2023-06-22T05:03:55;16.17;;;11.87;;
16735;SDS011;17990;49.548;9.730;2023-06-22T05:06:25;21.65;;;11.10;;
16735;SDS011;17990;49.548;9.730;2023-06-22T05:08:54;15.48;;;10.88;;
16735;SDS011;17990;49.548;9.730;2023-06-22T05:11:23;18.80;;;10.93;;
16735;SDS011;17990;49.548;9.730;2023-06-22T05:13:51;14.45;;;11.15;;
16735;SDS011;17990;49.548;9.730;2023-06-22T05:16:18;17.08;;;11.40;;
16735;SDS011;17990;49.548;9.730;2023-06-22T05:18:48;12.77;;;10.43;;
16735;SDS011;17990;49.548;9.730;2023-06-22T05:21:18;13.52;;;10.20;;
16735;SDS011;17990;49.548;9.730;2023-06-22T05:23:47;13.60;;;9.93;;
16735;SDS011;17990;49.548;9.730;2023-06-22T05:26:16;14.20;;;9.68;;
16735;SDS011;17990;49.548;9.730;2023-06-22T05:28:42;11.70;;;9.65;;
16735;SDS011;17990;49.548;9.730;2023-06-22T05:31:11;15.07;;;9.63;;
16735;SDS011;17990;49.548;9.730;2023-06-22T05:33:39;13.05;;;9.50;;
16735;SDS011;17990;49.548;9.730;2023-06-22T05:36:06;12.30;;;9.80;;
16735;SDS011;17990;49.548;9.730;2023-06-22T05:38:33;13.70;;;10.13;;
16735;SDS011;17990;49.548;9.730;2023-06-22T05:41:00;15.85;;;9.80;;
16735;SDS011;17990;49.548;9.730;2023-06-22T05:43:28;12.07;;;9.07;;
16735;SDS011;17990;49.548;9.730;2023-06-22T05:45:55;12.05;;;9.27;;
16735;SDS011;17990;49.548;9.730;2023-06-22T05:48:22;13.95;;;9.43;;
16735;SDS011;17990;49.548;9.730;2023-06-22T05:50:49;16.58;;;9.57;;
16735;SDS011;17990;49.548;9.730;2023-06-22T05:53:16;10.23;;;9.18;;
16735;SDS011;17990;49.548;9.730;2023-06-22T05:55:43;11.65;;;9.35;;
16735;SDS011;17990;49.548;9.730;2023-06-22T05:58:10;10.70;;;9.10;;
16735;SDS011;17990;49.548;9.730;2023-06-22T06:00:39;11.35;;;9.57;;
16735;SDS011;17990;49.548;9.730;2023-06-22T06:03:06;11.23;;;9.05;;
16735;SDS011;17990;49.548;9.730;2023-06-22T06:05:34;10.38;;;8.40;;
16735;SDS011;17990;49.548;9.730;2023-06-22T06:08:03;9.43;;;8.27;;
16735;SDS011;17990;49.548;9.730;2023-06-22T06:10:32;11.20;;;8.98;;
16735;SDS011;17990;49.548;9.730;2023-06-22T06:12:59;9.55;;;8.63;;
16735;SDS011;17990;49.548;9.730;2023-06-22T06:15:29;11.60;;;8.82;;
16735;SDS011;17990;49.548;9.730;2023-06-22T06:17:58;10.48;;;8.35;;
16735;SDS011;17990;49.548;9.730;2023-06-22T06:20:25;9.75;;;8.18;;
16735;SDS011;17990;49.548;9.730;2023-06-22T06:22:53;12.10;;;8.38;;
16735;SDS011;17990;49.548;9.730;2023-06-22T06:25:21;10.02;;;8.27;;
16735;SDS011;17990;49.548;9.730;2023-06-22T06:27:48;10.52;;;7.65;;
16735;SDS011;17990;49.548;9.730;2023-06-22T06:30:17;8.38;;;7.10;;
16735;SDS011;17990;49.548;9.730;2023-06-22T06:32:45;9.30;;;8.27;;
16735;SDS011;17990;49.548;9.730;2023-06-22T06:35:14;10.52;;;7.95;;
16735;SDS011;17990;49.548;9.730;2023-06-22T06:37:42;10.65;;;8.23;;
16735;SDS011;17990;49.548;9.730;2023-06-22T06:40:11;10.63;;;8.32;;
16735;SDS011;17990;49.548;9.730;2023-06-22T06:42:40;11.52;;;8.05;;
16735;SDS011;17990;49.548;9.730;2023-06-22T06:45:10;10.05;;;7.85;;
16735;SDS011;17990;49.548;9.730;2023-06-22T06:47:38;8.30;;;7.40;;
16735;SDS011;17990;49.548;9.730;2023-06-22T06:50:05;9.35;;;8.10;;
16735;SDS011;17990;49.548;9.730;2023-06-22T06:52:35;9.50;;;7.10;;
16735;SDS011;17990;49.548;9.730;2023-06-22T06:55:02;10.48;;;7.72;;
16735;SDS011;17990;49.548;9.730;2023-06-22T06:57:33;9.27;;;7.60;;
16735;SDS011;17990;49.548;9.730;2023-06-22T07:00:00;9.82;;;7.90;;
16735;SDS011;17990;49.548;9.730;2023-06-22T07:02:31;9.10;;;6.95;;
16735;SDS011;17990;49.548;9.730;2023-06-22T07:04:58;9.40;;;7.80;;
16735;SDS011;17990;49.548;9.730;2023-06-22T07:07:25;8.18;;;7.07;;
16735;SDS011;17990;49.548;9.730;2023-06-22T07:09:53;8.85;;;7.38;;
16735;SDS011;17990;49.548;9.730;2023-06-22T07:12:20;8.80;;;7.68;;
16735;SDS011;17990;49.548;9.730;2023-06-22T07:14:47;8.85;;;8.05;;
16735;SDS011;17990;49.548;9.730;2023-06-22T07:17:13;8.98;;;7.35;;
16735;SDS011;17990;49.548;9.730;2023-06-22T07:19:40;8.38;;;7.63;;
16735;SDS011;17990;49.548;9.730;2023-06-22T07:22:07;8.35;;;7.53;;
16735;SDS011;17990;49.548;9.730;2023-06-22T07:24:34;8.40;;;7.60;;
16735;SDS011;17990;49.548;9.730;2023-06-22T07:27:03;7.78;;;7.07;;
16735;SDS011;17990;49.548;9.730;2023-06-22T07:29:31;9.10;;;6.90;;
16735;SDS011;17990;49.548;9.730;2023-06-22T07:31:58;8.55;;;7.55;;
16735;SDS011;17990;49.548;9.730;2023-06-22T07:34:25;8.35;;;7.53;;
16735;SDS011;17990;49.548;9.730;2023-06-22T07:36:52;9.57;;;7.75;;
16735;SDS011;17990;49.548;9.730;2023-06-22T07:39:19;7.82;;;7.00;;
16735;SDS011;17990;49.548;9.730;2023-06-22T07:41:50;8.23;;;7.47;;
16735;SDS011;17990;49.548;9.730;2023-06-22T07:44:19;9.93;;;7.45;;
16735;SDS011;17990;49.548;9.730;2023-06-22T07:46:46;8.95;;;7.50;;
16735;SDS011;17990;49.548;9.730;2023-06-22T07:49:12;11.15;;;7.90;;
16735;SDS011;17990;49.548;9.730;2023-06-22T07:51:39;8.43;;;7.10;;
16735;SDS011;17990;49.548;9.730;2023-06-22T07:54:06;10.07;;;7.80;;
16735;SDS011;17990;49.548;9.730;2023-06-22T07:56:33;8.02;;;7.13;;
16735;SDS011;17990;49.548;9.730;2023-06-22T07:59:00;8.25;;;7.35;;
16735;SDS011;17990;49.548;9.730;2023-06-22T08:01:30;10.15;;;6.88;;
16735;SDS011;17990;49.548;9.730;2023-06-22T08:03:56;9.65;;;7.00;;
16735;SDS011;17990;49.548;9.730;2023-06-22T08:06:23;7.38;;;6.38;;
16735;SDS011;17990;49.548;9.730;2023-06-22T08:08:50;7.18;;;6.47;;
16735;SDS011;17990;49.548;9.730;2023-06-22T08:11:18;12.05;;;8.05;;
16735;SDS011;17990;49.548;9.730;2023-06-22T08:13:47;8.48;;;6.60;;
16735;SDS011;17990;49.548;9.730;2023-06-22T08:16:14;6.90;;;6.25;;
16735;SDS011;17990;49.548;9.730;2023-06-22T08:18:42;9.43;;;7.30;;
16735;SDS011;17990;49.548;9.730;2023-06-22T08:21:09;6.85;;;6.15;;
16735;SDS011;17990;49.548;9.730;2023-06-22T08:23:37;8.25;;;6.47;;
16735;SDS011;17990;49.548;9.730;2023-06-22T08:26:04;7.97;;;6.35;;
16735;SDS011;17990;49.548;9.730;2023-06-22T08:28:31;6.97;;;6.28;;
16735;SDS011;17990;49.548;9.730;2023-06-22T08:30:59;8.45;;;6.43;;
16735;SDS011;17990;49.548;9.730;2023-06-22T08:33:27;7.75;;;6.10;;
16735;SDS011;17990;49.548;9.730;2023-06-22T08:35:57;7.65;;;6.82;;
16735;SDS011;17990;49.548;9.730;2023-06-22T08:38:24;7.95;;;7.10;;
16735;SDS011;17990;49.548;9.730;2023-06-22T08:40:51;7.35;;;6.65;;
16735;SDS011;17990;49.548;9.730;2023-06-22T08:43:18;7.85;;;7.07;;
16735;SDS011;17990;49.548;9.730;2023-06-22T08:45:45;7.53;;;6.82;;
16735;SDS011;17990;49.548;9.730;2023-06-22T08:48:12;7.88;;;6.38;;
16735;SDS011;17990;49.548;9.730;2023-06-22T08:50:39;11.57;;;7.32;;
16735;SDS011;17990;49.548;9.730;2023-06-22T08:53:07;7.65;;;5.90;;
16735;SDS011;17990;49.548;9.730;2023-06-22T08:55:34;6.70;;;5.25;;
16735;SDS011;17990;49.548;9.730;2023-06-22T08:58:01;6.13;;;5.25;;
16735;SDS011;17990;49.548;9.730;2023-06-22T09:00:28;9.75;;;6.28;;
16735;SDS011;17990;49.548;9.730;2023-06-22T09:02:58;7.28;;;6.20;;
16735;SDS011;17990;49.548;9.730;2023-06-22T09:05:25;6.47;;;5.88;;
16735;SDS011;17990;49.548;9.730;2023-06-22T09:07:52;6.20;;;5.60;;
16735;SDS011;17990;49.548;9.730;2023-06-22T09:10:21;8.38;;;5.80;;
16735;SDS011;17990;49.548;9.730;2023-06-22T09:12:48;7.47;;;5.90;;
16735;SDS011;17990;49.548;9.730;2023-06-22T09:15:14;6.18;;;5.57;;
16735;SDS011;17990;49.548;9.730;2023-06-22T09:17:41;6.40;;;5.70;;
16735;SDS011;17990;49.548;9.730;2023-06-22T09:20:09;8.65;;;5.25;;
16735;SDS011;17990;49.548;9.730;2023-06-22T09:22:36;9.15;;;5.93;;
16735;SDS011;17990;49.548;9.730;2023-06-22T09:25:03;5.90;;;5.30;;
16735;SDS011;17990;49.548;9.730;2023-06-22T09:27:33;8.38;;;5.18;;
16735;SDS011;17990;49.548;9.730;2023-06-22T09:30:00;6.63;;;4.82;;
16735;SDS011;17990;49.548;9.730;2023-06-22T09:32:28;5.50;;;4.80;;
16735;SDS011;17990;49.548;9.730;2023-06-22T09:34:55;5.82;;;5.03;;
16735;SDS011;17990;49.548;9.730;2023-06-22T09:37:22;6.90;;;5.45;;
16735;SDS011;17990;49.548;9.730;2023-06-22T09:39:49;5.20;;;4.70;;
16735;SDS011;17990;49.548;9.730;2023-06-22T09:42:16;5.88;;;4.95;;
16735;SDS011;17990;49.548;9.730;2023-06-22T09:44:44;9.32;;;4.70;;
16735;SDS011;17990;49.548;9.730;2023-06-22T09:47:10;7.63;;;4.82;;
16735;SDS011;17990;49.548;9.730;2023-06-22T09:49:37;7.38;;;4.68;;
16735;SDS011;17990;49.548;9.730;2023-06-22T09:52:05;7.93;;;4.90;;
16735;SDS011;17990;49.548;9.730;2023-06-22T09:54:32;6.22;;;4.85;;
16735;SDS011;17990;49.548;9.730;2023-06-22T09:56:59;6.85;;;4.78;;
16735;SDS011;17990;49.548;9.730;2023-06-22T09:59:26;4.95;;;4.45;;
16735;SDS011;17990;49.548;9.730;2023-06-22T10:01:54;6.47;;;4.80;;
16735;SDS011;17990;49.548;9.730;2023-06-22T10:04:21;5.32;;;4.40;;
16735;SDS011;17990;49.548;9.730;2023-06-22T10:06:49;6.30;;;4.35;;
16735;SDS011;17990;49.548;9.730;2023-06-22T10:09:16;4.88;;;4.45;;
16735;SDS011;17990;49.548;9.730;2023-06-22T10:11:43;6.05;;;4.32;;
16735;SDS011;17990;49.548;9.730;2023-06-22T10:14:10;6.35;;;4.20;;
16735;SDS011;17990;49.548;9.730;2023-06-22T10:16:36;8.15;;;4.47;;
16735;SDS011;17990;49.548;9.730;2023-06-22T10:19:05;9.60;;;4.63;;
16735;SDS011;17990;49.548;9.730;2023-06-22T10:21:32;5.85;;;4.72;;
16735;SDS011;17990;49.548;9.730;2023-06-22T10:23:59;6.07;;;4.20;;
16735;SDS011;17990;49.548;9.730;2023-06-22T10:26:30;5.43;;;4.53;;
16735;SDS011;17990;49.548;9.730;2023-06-22T10:28:58;8.15;;;4.32;;
16735;SDS011;17990;49.548;9.730;2023-06-22T10:31:24;5.93;;;4.22;;
16735;SDS011;17990;49.548;9.730;2023-06-22T10:33:52;7.70;;;4.10;;
16735;SDS011;17990;49.548;9.730;2023-06-22T10:36:21;7.43;;;3.92;;
16735;SDS011;17990;49.548;9.730;2023-06-22T10:38:48;7.32;;;4.10;;
16735;SDS011;17990;49.548;9.730;2023-06-22T10:41:15;5.97;;;4.18;;
16735;SDS011;17990;49.548;9.730;2023-06-22T10:43:42;6.43;;;4.05;;
16735;SDS011;17990;49.548;9.730;2023-06-22T10:46:09;5.72;;;3.75;;
16735;SDS011;17990;49.548;9.730;2023-06-22T10:48:36;9.10;;;3.90;;
16735;SDS011;17990;49.548;9.730;2023-06-22T10:51:02;10.13;;;3.85;;
16735;SDS011;17990;49.548;9.730;2023-06-22T10:53:31;5.63;;;3.78;;
16735;SDS011;17990;49.548;9.730;2023-06-22T10:55:58;5.22;;;3.97;;
16735;SDS011;17990;49.548;9.730;2023-06-22T10:58:25;9.23;;;3.92;;
16735;SDS011;17990;49.548;9.730;2023-06-22T11:00:52;8.02;;;4.20;;
16735;SDS011;17990;49.548;9.730;2023-06-22T11:03:19;6.13;;;3.70;;
16735;SDS011;17990;49.548;9.730;2023-06-22T11:05:45;8.85;;;4.50;;
16735;SDS011;17990;49.548;9.730;2023-06-22T11:08:13;9.38;;;4.20;;
16735;SDS011;17990;49.548;9.730;2023-06-22T11:10:41;11.70;;;3.95;;
16735;SDS011;17990;49.548;9.730;2023-06-22T11:13:08;10.82;;;4.43;;
16735;SDS011;17990;49.548;9.730;2023-06-22T11:15:35;11.23;;;4.20;;
16735;SDS011;17990;49.548;9.730;2023-06-22T11:18:02;9.68;;;4.13;;
16735;SDS011;17990;49.548;9.730;2023-06-22T11:20:32;10.90;;;4.25;;
16735;SDS011;17990;49.548;9.730;2023-06-22T11:23:03;10.00;;;3.92;;
16735;SDS011;17990;49.548;9.730;2023-06-22T11:25:30;7.70;;;4.28;;
16735;SDS011;17990;49.548;9.730;2023-06-22T11:27:58;9.77;;;4.20;;
16735;SDS011;17990;49.548;9.730;2023-06-22T11:30:25;10.57;;;4.25;;
16735;SDS011;17990;49.548;9.730;2023-06-22T11:32:52;12.48;;;4.38;;
16735;SDS011;17990;49.548;9.730;2023-06-22T11:35:19;11.43;;;4.18;;
16735;SDS011;17990;49.548;9.730;2023-06-22T11:37:46;8.00;;;3.92;;
16735;SDS011;17990;49.548;9.730;2023-06-22T11:40:12;9.60;;;4.15;;
16735;SDS011;17990;49.548;9.730;2023-06-22T11:42:39;8.35;;;3.92;;
16735;SDS011;17990;49.548;9.730;2023-06-22T11:45:08;9.73;;;4.40;;
16735;SDS011;17990;49.548;9.730;2023-06-22T11:47:35;11.05;;;4.60;;
16735;SDS011;17990;49.548;9.730;2023-06-22T11:50:02;10.63;;;4.63;;
16735;SDS011;17990;49.548;9.730;2023-06-22T11:52:30;8.80;;;4.07;;
16735;SDS011;17990;49.548;9.730;2023-06-22T11:54:57;12.18;;;4.32;;
16735;SDS011;17990;49.548;9.730;2023-06-22T11:57:25;9.15;;;4.30;;
16735;SDS011;17990;49.548;9.730;2023-06-22T11:59:51;10.57;;;4.60;;
16735;SDS011;17990;49.548;9.730;2023-06-22T12:02:19;13.07;;;4.38;;
16735;SDS011;17990;49.548;9.730;2023-06-22T12:04:46;10.40;;;4.10;;
16735;SDS011;17990;49.548;9.730;2023-06-22T12:07:13;6.95;;;3.85;;
16735;SDS011;17990;49.548;9.730;2023-06-22T12:09:41;9.55;;;3.90;;
16735;SDS011;17990;49.548;9.730;2023-06-22T12:12:08;13.43;;;6.72;;
16735;SDS011;17990;49.548;9.730;2023-06-22T12:14:35;8.25;;;3.90;;
16735;SDS011;17990;49.548;9.730;2023-06-22T12:17:02;7.65;;;4.20;;
16735;SDS011;17990;49.548;9.730;2023-06-22T12:19:30;9.63;;;3.80;;
16735;SDS011;17990;49.548;9.730;2023-06-22T12:21:57;10.40;;;4.80;;
16735;SDS011;17990;49.548;9.730;2023-06-22T12:24:24;7.65;;;4.20;;
16735;SDS011;17990;49.548;9.730;2023-06-22T12:26:51;10.38;;;4.28;;
16735;SDS011;17990;49.548;9.730;2023-06-22T12:29:17;9.75;;;4.40;;
16735;SDS011;17990;49.548;9.730;2023-06-22T12:31:44;7.20;;;4.30;;
16735;SDS011;17990;49.548;9.730;2023-06-22T12:34:11;10.30;;;4.28;;
16735;SDS011;17990;49.548;9.730;2023-06-22T12:36:39;6.82;;;4.35;;
16735;SDS011;17990;49.548;9.730;2023-06-22T12:39:06;9.73;;;4.47;;
16735;SDS011;17990;49.548;9.730;2023-06-22T12:41:33;6.10;;;4.10;;
16735;SDS011;17990;49.548;9.730;2023-06-22T12:44:00;9.40;;;4.30;;
16735;SDS011;17990;49.548;9.730;2023-06-22T12:46:27;11.23;;;4.20;;
16735;SDS011;17990;49.548;9.730;2023-06-22T12:48:55;9.55;;;4.63;;
16735;SDS011;17990;49.548;9.730;2023-06-22T12:51:22;8.65;;;4.05;;
16735;SDS011;17990;49.548;9.730;2023-06-22T12:53:50;11.57;;;4.25;;
16735;SDS011;17990;49.548;9.730;2023-06-22T12:56:17;10.57;;;4.47;;
16735;SDS011;17990;49.548;9.730;2023-06-22T12:58:44;8.32;;;4.20;;
16735;SDS011;17990;49.548;9.730;2023-06-22T13:01:11;10.77;;;4.55;;
16735;SDS011;17990;49.548;9.730;2023-06-22T13:03:37;12.43;;;4.05;;
16735;SDS011;17990;49.548;9.730;2023-06-22T13:06:04;10.00;;;4.00;;
16735;SDS011;17990;49.548;9.730;2023-06-22T13:08:31;11.23;;;4.25;;
16735;SDS011;17990;49.548;9.730;2023-06-22T13:10:59;12.48;;;4.20;;
16735;SDS011;17990;49.548;9.730;2023-06-22T13:13:26;13.30;;;4.68;;
16735;SDS011;17990;49.548;9.730;2023-06-22T13:15:53;12.73;;;4.18;;
16735;SDS011;17990;49.548;9.730;2023-06-22T13:18:20;10.85;;;3.95;;
16735;SDS011;17990;49.548;9.730;2023-06-22T13:20:47;9.48;;;4.60;;
16735;SDS011;17990;49.548;9.730;2023-06-22T13:23:13;9.70;;;4.53;;
16735;SDS011;17990;49.548;9.730;2023-06-22T13:25:40;9.63;;;4.25;;
16735;SDS011;17990;49.548;9.730;2023-06-22T13:28:08;8.88;;;4.05;;
16735;SDS011;17990;49.548;9.730;2023-06-22T13:30:37;8.75;;;3.85;;
16735;SDS011;17990;49.548;9.730;2023-06-22T13:33:04;13.77;;;4.05;;
16735;SDS011;17990;49.548;9.730;2023-06-22T13:35:31;8.35;;;4.30;;
16735;SDS011;17990;49.548;9.730;2023-06-22T13:37:57;8.90;;;4.10;;
16735;SDS011;17990;49.548;9.730;2023-06-22T13:40:24;9.13;;;3.83;;
16735;SDS011;17990;49.548;9.730;2023-06-22T13:42:51;10.65;;;4.47;;
16735;SDS011;17990;49.548;9.730;2023-06-22T13:45:19;9.95;;;4.28;;
16735;SDS011;17990;49.548;9.730;2023-06-22T13:47:46;10.07;;;4.50;;
16735;SDS011;17990;49.548;9.730;2023-06-22T13:50:13;13.57;;;4.78;;
16735;SDS011;17990;49.548;9.730;2023-06-22T13:52:40;8.48;;;4.45;;
16735;SDS011;17990;49.548;9.730;2023-06-22T13:55:07;9.73;;;4.00;;
16735;SDS011;17990;49.548;9.730;2023-06-22T13:57:35;11.02;;;4.85;;
16735;SDS011;17990;49.548;9.730;2023-06-22T14:00:03;9.75;;;4.43;;
16735;SDS011;17990;49.548;9.730;2023-06-22T14:02:32;10.07;;;4.32;;
16735;SDS011;17990;49.548;9.730;2023-06-22T14:04:59;10.40;;;4.88;;
16735;SDS011;17990;49.548;9.730;2023-06-22T14:07:27;10.00;;;4.10;;
16735;SDS011;17990;49.548;9.730;2023-06-22T14:09:54;8.15;;;4.03;;
16735;SDS011;17990;49.548;9.730;2023-06-22T14:12:21;8.68;;;4.40;;
16735;SDS011;17990;49.548;9.730;2023-06-22T14:14:47;18.58;;;4.82;;
16735;SDS011;17990;49.548;9.730;2023-06-22T14:17:14;9.38;;;3.97;;
16735;SDS011;17990;49.548;9.730;2023-06-22T14:19:43;12.15;;;4.30;;
16735;SDS011;17990;49.548;9.730;2023-06-22T14:22:09;11.85;;;4.40;;
16735;SDS011;17990;49.548;9.730;2023-06-22T14:24:36;10.10;;;3.85;;
16735;SDS011;17990;49.548;9.730;2023-06-22T14:27:03;8.95;;;3.85;;
16735;SDS011;17990;49.548;9.730;2023-06-22T14:29:33;11.55;;;4.25;;
16735;SDS011;17990;49.548;9.730;2023-06-22T14:32:00;11.52;;;3.95;;
16735;SDS011;17990;49.548;9.730;2023-06-22T14:34:27;12.30;;;4.32;;
16735;SDS011;17990;49.548;9.730;2023-06-22T14:36:55;13.52;;;3.88;;
16735;SDS011;17990;49.548;9.730;2023-06-22T14:39:22;14.27;;;4.38;;
16735;SDS011;17990;49.548;9.730;2023-06-22T14:41:49;9.73;;;4.20;;
16735;SDS011;17990;49.548;9.730;2023-06-22T14:44:15;8.95;;;4.10;;